PWSweather.com
Personal Weather Stations
Station Observations
CONLIG1
Conlig, Bangor Co DownGB BT23

ConligBangor Co DownGB BT23

Lat: 54.63399887, Lon: -5.671

Elevation: 166

Station Type: Davis Vantage Pro2 Plus

https://www.conligwx.org

Latest ConditionsUpdated 1:45:00 PM GMT Tuesday, Jan 23, 2018
Currently Today's Max Today's Min Today's Average
Temperature 53.3°F11.8°C 53.5°F11.9°C 44.9°F7.2°C 49.2°F9.6°C
Dew Point 45.2°F7.3°C 48.9°F9.4°C 41.9°F5.5°C 46.2°F7.9°C
Winds 8.0 mph SW12.9 kmh SW 9.0 mph SW14.5 kmh SW - 5.8 mph 9.3 kmh
Wind Gusts 21.0 mph33.8 kmh 23.0 mph37.0 kmh - -
Humidity 74% 94% 74% 90%
Pressure 29.50 in999.0 mb 29.75 in1007.5 mb 29.49 in998.6 mb -
Precipitation - 0.02 in0.5 mm - -
Hour Temp Dew Point Humidity Winds Wind Gusts Pressure Precip Precip Rate Daily Precip Total
01:45 PM 53.3°F11.8°C 45.2°F7.3°C 74% 8.0 mph SW12.9 kmh SW 21.0 mph33.8 kmh 29.50 in999.0 mb 0.00 in0.0 mm 0.00 in0.0 mm 0.02 in0.5 mm
01:30 PM 53.2°F11.8°C 46.2°F7.9°C 77% 8.0 mph SW12.9 kmh SW 23.0 mph37.0 kmh 29.50 in999.0 mb 0.00 in0.0 mm 0.00 in0.0 mm 0.02 in0.5 mm
01:15 PM 53.5°F11.9°C 46.5°F8.1°C 77% 9.0 mph SW14.5 kmh SW 23.0 mph37.0 kmh 29.50 in999.0 mb 0.00 in0.0 mm 0.00 in0.0 mm 0.02 in0.5 mm
01:00 PM 53.2°F11.8°C 46.9°F8.3°C 79% 8.0 mph SW12.9 kmh SW 21.0 mph33.8 kmh 29.50 in999.0 mb 0.00 in0.0 mm 0.00 in0.0 mm 0.02 in0.5 mm
12:45 PM 52.8°F11.6°C 47.5°F8.6°C 82% 5.0 mph SW8.0 kmh SW 14.0 mph22.5 kmh 29.50 in999.0 mb 0.00 in0.0 mm 0.00 in0.0 mm 0.02 in0.5 mm
12:30 PM 52.9°F11.6°C 47.9°F8.8°C 83% 6.0 mph SW9.7 kmh SW 15.0 mph24.1 kmh 29.50 in999.0 mb 0.00 in0.0 mm 0.00 in0.0 mm 0.02 in0.5 mm
12:15 PM 53.4°F11.9°C 48.0°F8.9°C 82% 7.0 mph SW11.3 kmh SW 18.0 mph29.0 kmh 29.51 in999.3 mb 0.00 in0.0 mm 0.00 in0.0 mm 0.02 in0.5 mm
12:00 PM 53.1°F11.7°C 48.4°F9.1°C 84% 6.0 mph SW9.7 kmh SW 19.0 mph30.6 kmh 29.51 in999.3 mb 0.00 in0.0 mm 0.00 in0.0 mm 0.02 in0.5 mm
11:45 AM 53.0°F11.7°C 48.9°F9.4°C 86% 5.0 mph SW8.0 kmh SW 13.0 mph20.9 kmh 29.51 in999.3 mb 0.00 in0.0 mm 0.00 in0.0 mm 0.02 in0.5 mm
11:30 AM 53.2°F11.8°C 48.8°F9.3°C 85% 7.0 mph SW11.3 kmh SW 16.0 mph25.7 kmh 29.51 in999.3 mb 0.00 in0.0 mm 0.00 in0.0 mm 0.02 in0.5 mm
11:15 AM 53.3°F11.8°C 48.9°F9.4°C 85% 5.0 mph SW8.0 kmh SW 17.0 mph27.4 kmh 29.50 in999.0 mb 0.00 in0.0 mm 0.00 in0.0 mm 0.02 in0.5 mm
11:00 AM 52.9°F11.6°C 48.8°F9.3°C 86% 4.0 mph SSW6.4 kmh SSW 15.0 mph24.1 kmh 29.50 in999.0 mb 0.00 in0.0 mm 0.00 in0.0 mm 0.02 in0.5 mm
10:45 AM 52.7°F11.5°C 48.6°F9.2°C 86% 5.0 mph SSW8.0 kmh SSW 15.0 mph24.1 kmh 29.51 in999.3 mb 0.00 in0.0 mm 0.00 in0.0 mm 0.02 in0.5 mm
10:30 AM 52.5°F11.4°C 48.4°F9.1°C 86% 5.0 mph SSW8.0 kmh SSW 16.0 mph25.7 kmh 29.50 in999.0 mb 0.00 in0.0 mm 0.00 in0.0 mm 0.02 in0.5 mm
10:15 AM 52.1°F11.2°C 48.7°F9.3°C 88% 6.0 mph SSW9.7 kmh SSW 15.0 mph24.1 kmh 29.50 in999.0 mb 0.00 in0.0 mm 0.00 in0.0 mm 0.02 in0.5 mm
10:00 AM 50.8°F10.4°C 48.8°F9.3°C 93% 5.0 mph S8.0 kmh S 15.0 mph24.1 kmh 29.49 in998.6 mb 0.01 in0.3 mm 0.00 in0.0 mm 0.02 in0.5 mm
09:45 AM 50.5°F10.3°C 48.6°F9.2°C 93% 4.0 mph S6.4 kmh S 12.0 mph19.3 kmh 29.50 in999.0 mb 0.01 in0.3 mm 0.00 in0.0 mm 0.02 in0.5 mm
09:30 AM 50.4°F10.2°C 48.5°F9.2°C 93% 6.0 mph S9.7 kmh S 22.0 mph35.4 kmh 29.50 in999.0 mb 0.01 in0.3 mm 0.00 in0.0 mm 0.02 in0.5 mm
09:15 AM 50.3°F10.2°C 48.4°F9.1°C 93% 5.0 mph S8.0 kmh S 10.0 mph16.1 kmh 29.50 in999.0 mb 0.01 in0.3 mm 0.04 in1.0 mm 0.02 in0.5 mm
09:00 AM 50.4°F10.2°C 48.5°F9.2°C 93% 6.0 mph S9.7 kmh S 14.0 mph22.5 kmh 29.50 in999.0 mb 0.00 in0.0 mm 0.00 in0.0 mm 0.02 in0.5 mm
08:45 AM 50.2°F10.1°C 48.3°F9.1°C 93% 5.0 mph S8.0 kmh S 12.0 mph19.3 kmh 29.50 in999.0 mb 0.00 in0.0 mm 0.00 in0.0 mm 0.02 in0.5 mm
08:30 AM 50.4°F10.2°C 48.5°F9.2°C 93% 5.0 mph S8.0 kmh S 11.0 mph17.7 kmh 29.51 in999.3 mb 0.00 in0.0 mm 0.00 in0.0 mm 0.02 in0.5 mm
08:15 AM 50.5°F10.3°C 48.6°F9.2°C 93% 5.0 mph S8.0 kmh S 13.0 mph20.9 kmh 29.52 in999.7 mb 0.02 in0.5 mm 0.00 in0.0 mm 0.02 in0.5 mm
08:00 AM 50.4°F10.2°C 48.5°F9.2°C 93% 5.0 mph S8.0 kmh S 14.0 mph22.5 kmh 29.51 in999.3 mb 0.02 in0.5 mm 0.00 in0.0 mm 0.02 in0.5 mm
07:45 AM 50.2°F10.1°C 48.5°F9.2°C 94% 5.0 mph S8.0 kmh S 11.0 mph17.7 kmh 29.51 in999.3 mb 0.02 in0.5 mm 0.00 in0.0 mm 0.02 in0.5 mm
07:30 AM 49.2°F9.6°C 47.5°F8.6°C 94% 4.0 mph S6.4 kmh S 9.0 mph14.5 kmh 29.51 in999.3 mb 0.02 in0.5 mm 0.08 in2.0 mm 0.02 in0.5 mm
07:15 AM 48.8°F9.3°C 47.2°F8.4°C 94% 3.0 mph S4.8 kmh S 7.0 mph11.3 kmh 29.53 in1000.0 mb 0.00 in0.0 mm 0.00 in0.0 mm 0.00 in0.0 mm
07:00 AM 48.7°F9.3°C 47.1°F8.4°C 94% 4.0 mph S6.4 kmh S 11.0 mph17.7 kmh 29.53 in1000.0 mb 0.00 in0.0 mm 0.00 in0.0 mm 0.00 in0.0 mm
06:45 AM 48.5°F9.2°C 46.9°F8.3°C 94% 4.0 mph S6.4 kmh S 12.0 mph19.3 kmh 29.54 in1000.3 mb 0.00 in0.0 mm 0.00 in0.0 mm 0.00 in0.0 mm
06:30 AM 48.2°F9.0°C 46.6°F8.1°C 94% 4.0 mph S6.4 kmh S 10.0 mph16.1 kmh 29.54 in1000.3 mb 0.00 in0.0 mm 0.00 in0.0 mm 0.00 in0.0 mm
06:15 AM 47.8°F8.8°C 46.2°F7.9°C 94% 4.0 mph S6.4 kmh S 10.0 mph16.1 kmh 29.54 in1000.3 mb 0.00 in0.0 mm 0.00 in0.0 mm 0.00 in0.0 mm
06:00 AM 47.6°F8.7°C 45.7°F7.6°C 93% 5.0 mph S8.0 kmh S 13.0 mph20.9 kmh 29.53 in1000.0 mb 0.00 in0.0 mm 0.00 in0.0 mm 0.00 in0.0 mm
05:45 AM 47.5°F8.6°C 45.9°F7.7°C 94% 6.0 mph S9.7 kmh S 12.0 mph19.3 kmh 29.54 in1000.3 mb 0.00 in0.0 mm 0.00 in0.0 mm 0.00 in0.0 mm
05:30 AM 47.4°F8.6°C 45.5°F7.5°C 93% 6.0 mph S9.7 kmh S 13.0 mph20.9 kmh 29.55 in1000.7 mb 0.00 in0.0 mm 0.00 in0.0 mm 0.00 in0.0 mm
05:15 AM 47.4°F8.6°C 45.5°F7.5°C 93% 6.0 mph S9.7 kmh S 14.0 mph22.5 kmh 29.56 in1001.0 mb 0.00 in0.0 mm 0.00 in0.0 mm 0.00 in0.0 mm
05:00 AM 47.3°F8.5°C 45.4°F7.4°C 93% 6.0 mph S9.7 kmh S 12.0 mph19.3 kmh 29.57 in1001.4 mb 0.00 in0.0 mm 0.00 in0.0 mm 0.00 in0.0 mm
04:45 AM 47.3°F8.5°C 45.4°F7.4°C 93% 6.0 mph S9.7 kmh S 17.0 mph27.4 kmh 29.58 in1001.7 mb 0.00 in0.0 mm 0.00 in0.0 mm 0.00 in0.0 mm
04:30 AM 47.1°F8.4°C 45.2°F7.3°C 93% 6.0 mph S9.7 kmh S 14.0 mph22.5 kmh 29.59 in1002.0 mb 0.00 in0.0 mm 0.00 in0.0 mm 0.00 in0.0 mm
04:15 AM 47.1°F8.4°C 45.2°F7.3°C 93% 6.0 mph S9.7 kmh S 13.0 mph20.9 kmh 29.61 in1002.7 mb 0.00 in0.0 mm 0.00 in0.0 mm 0.00 in0.0 mm
04:00 AM 47.1°F8.4°C 44.9°F7.2°C 92% 7.0 mph S11.3 kmh S 15.0 mph24.1 kmh 29.61 in1002.7 mb 0.00 in0.0 mm 0.00 in0.0 mm 0.00 in0.0 mm
03:45 AM 47.1°F8.4°C 44.9°F7.2°C 92% 6.0 mph S9.7 kmh S 16.0 mph25.7 kmh 29.62 in1003.0 mb 0.00 in0.0 mm 0.00 in0.0 mm 0.00 in0.0 mm
03:30 AM 47.0°F8.3°C 44.8°F7.1°C 92% 7.0 mph S11.3 kmh S 14.0 mph22.5 kmh 29.63 in1003.4 mb 0.00 in0.0 mm 0.00 in0.0 mm 0.00 in0.0 mm
03:15 AM 46.8°F8.2°C 44.6°F7.0°C 92% 6.0 mph S9.7 kmh S 14.0 mph22.5 kmh 29.64 in1003.7 mb 0.00 in0.0 mm 0.00 in0.0 mm 0.00 in0.0 mm
03:00 AM 46.7°F8.2°C 44.2°F6.8°C 91% 7.0 mph S11.3 kmh S 15.0 mph24.1 kmh 29.66 in1004.4 mb 0.00 in0.0 mm 0.00 in0.0 mm 0.00 in0.0 mm
02:45 AM 46.5°F8.1°C 44.0°F6.7°C 91% 7.0 mph S11.3 kmh S 16.0 mph25.7 kmh 29.66 in1004.4 mb 0.00 in0.0 mm 0.00 in0.0 mm 0.00 in0.0 mm
02:30 AM 46.4°F8.0°C 43.9°F6.6°C 91% 6.0 mph S9.7 kmh S 14.0 mph22.5 kmh 29.67 in1004.7 mb 0.00 in0.0 mm 0.00 in0.0 mm 0.00 in0.0 mm
02:15 AM 46.5°F8.1°C 44.0°F6.7°C 91% 5.0 mph S8.0 kmh S 17.0 mph27.4 kmh 29.68 in1005.1 mb 0.00 in0.0 mm 0.00 in0.0 mm 0.00 in0.0 mm
02:00 AM 46.4°F8.0°C 43.9°F6.6°C 91% 7.0 mph S11.3 kmh S 13.0 mph20.9 kmh 29.69 in1005.4 mb 0.00 in0.0 mm 0.00 in0.0 mm 0.00 in0.0 mm
01:45 AM 46.3°F7.9°C 43.5°F6.4°C 90% 6.0 mph S9.7 kmh S 16.0 mph25.7 kmh 29.69 in1005.4 mb 0.00 in0.0 mm 0.00 in0.0 mm 0.00 in0.0 mm
01:30 AM 46.3°F7.9°C 43.2°F6.2°C 89% 6.0 mph S9.7 kmh S 16.0 mph25.7 kmh 29.70 in1005.8 mb 0.00 in0.0 mm 0.00 in0.0 mm 0.00 in0.0 mm
01:15 AM 46.2°F7.9°C 42.8°F6.0°C 88% 6.0 mph S9.7 kmh S 14.0 mph22.5 kmh 29.71 in1006.1 mb 0.00 in0.0 mm 0.00 in0.0 mm 0.00 in0.0 mm
01:00 AM 46.0°F7.8°C 42.6°F5.9°C 88% 6.0 mph S9.7 kmh S 14.0 mph22.5 kmh 29.72 in1006.4 mb 0.00 in0.0 mm 0.00 in0.0 mm 0.00 in0.0 mm
12:45 AM 45.6°F7.6°C 42.5°F5.8°C 89% 7.0 mph S11.3 kmh S 13.0 mph20.9 kmh 29.72 in1006.4 mb 0.00 in0.0 mm 0.00 in0.0 mm 0.00 in0.0 mm
12:30 AM 45.3°F7.4°C 42.2°F5.7°C 89% 7.0 mph S11.3 kmh S 15.0 mph24.1 kmh 29.73 in1006.8 mb 0.00 in0.0 mm 0.00 in0.0 mm 0.00 in0.0 mm
12:15 AM 45.1°F7.3°C 42.1°F5.6°C 89% 5.0 mph S8.0 kmh S 12.0 mph19.3 kmh 29.74 in1007.1 mb 0.00 in0.0 mm 0.00 in0.0 mm 0.00 in0.0 mm
12:00 AM 44.9°F7.2°C 41.9°F5.5°C 89% 6.0 mph S9.7 kmh S 13.0 mph20.9 kmh 29.75 in1007.5 mb 0.00 in0.0 mm 0.00 in0.0 mm 0.00 in0.0 mm